Time;durP1;ratioP1;P1;durP2;ratioP2;P2;SDS_P1;SDS_P2;PMS_P1;PMS_P2;Temp;Humidity;BMP_temperature;BMP_pressure;BME280_temperature;BME280_humidity;BME280_pressure;Samples;Min_cycle;Max_cycle;Signal;HPM_P1;HPM_P2
2021/07/04 00:02:20;;;;;;;14.50;8.10;;;16.20;99.90;;;;;;5006195;28;20215;-59
2021/07/04 00:04:46;;;;;;;12.30;7.60;;;16.20;99.90;;;;;;5010810;28;20177;-59
2021/07/04 00:07:11;;;;;;;11.03;7.90;;;16.20;99.90;;;;;;5008530;28;20488;-59
2021/07/04 00:09:38;;;;;;;14.00;7.90;;;16.20;99.90;;;;;;5008246;28;20259;-59
2021/07/04 00:12:05;;;;;;;10.40;8.00;;;16.20;99.90;;;;;;5002209;28;20196;-59
2021/07/04 00:14:30;;;;;;;10.90;7.63;;;16.10;99.90;;;;;;5008561;28;20588;-60
2021/07/04 00:16:56;;;;;;;8.60;7.20;;;16.10;99.90;;;;;;5008509;28;20526;-59
2021/07/04 00:19:22;;;;;;;11.17;8.00;;;16.10;99.90;;;;;;5016379;28;20180;-62
2021/07/04 00:21:48;;;;;;;9.17;7.17;;;16.00;99.90;;;;;;5014336;28;20736;-59
2021/07/04 00:24:13;;;;;;;9.60;7.33;;;16.00;99.90;;;;;;5019259;28;20185;-61
2021/07/04 00:26:39;;;;;;;10.50;8.07;;;16.00;99.90;;;;;;5016247;28;20184;-62
2021/07/04 00:29:04;;;;;;;12.00;7.73;;;16.00;99.90;;;;;;5008427;28;20189;-60
2021/07/04 00:31:30;;;;;;;10.27;7.20;;;16.00;99.90;;;;;;5007181;28;20216;-59
2021/07/04 00:33:56;;;;;;;12.40;7.50;;;16.00;99.90;;;;;;5010396;28;20177;-60
2021/07/04 00:36:22;;;;;;;13.80;7.57;;;16.00;99.90;;;;;;5006290;28;20180;-60
2021/07/04 00:38:48;;;;;;;9.47;7.63;;;15.90;99.90;;;;;;5007278;28;20188;-60
2021/07/04 00:41:13;;;;;;;8.70;6.63;;;15.90;99.90;;;;;;5006554;28;20455;-60
2021/07/04 00:43:39;;;;;;;11.73;6.83;;;15.90;99.90;;;;;;5008308;28;20180;-60
2021/07/04 00:46:05;;;;;;;14.93;7.13;;;15.90;99.90;;;;;;5003620;28;20176;-60
2021/07/04 00:48:30;;;;;;;10.10;6.70;;;15.90;99.90;;;;;;4990717;28;20165;-60
2021/07/04 00:50:56;;;;;;;8.13;6.80;;;15.80;99.90;;;;;;5005235;28;20523;-61
2021/07/04 00:53:23;;;;;;;8.77;6.70;;;15.80;99.90;;;;;;4998953;28;20185;-60
2021/07/04 00:55:49;;;;;;;11.23;8.17;;;15.80;99.90;;;;;;5003668;28;20184;-59
2021/07/04 00:58:14;;;;;;;12.97;8.17;;;15.80;99.90;;;;;;5006661;28;20459;-60
2021/07/04 01:00:41;;;;;;;10.33;7.70;;;15.80;99.90;;;;;;5006029;28;20204;-59
2021/07/04 01:03:08;;;;;;;8.47;6.60;;;15.80;99.90;;;;;;5010783;28;20221;-59
2021/07/04 01:05:36;;;;;;;8.20;6.67;;;15.80;99.90;;;;;;4998246;28;20931;-60
2021/07/04 01:08:04;;;;;;;11.43;6.93;;;15.80;99.90;;;;;;5009342;28;20430;-59
2021/07/04 01:10:31;;;;;;;15.83;6.90;;;15.80;99.90;;;;;;5005776;28;20466;-60
2021/07/04 01:12:59;;;;;;;10.70;6.47;;;15.70;99.90;;;;;;5002530;28;20448;-59
2021/07/04 01:15:26;;;;;;;11.27;7.30;;;15.70;99.90;;;;;;5004657;28;20438;-60
2021/07/04 01:17:55;;;;;;;10.77;7.90;;;15.70;99.90;;;;;;5008707;28;20470;-59
2021/07/04 01:20:22;;;;;;;10.23;7.80;;;15.70;99.90;;;;;;5008221;28;20439;-59
2021/07/04 01:23:04;;;;;;;16.07;9.20;;;15.70;99.90;;;;;;5004234;28;20810;-59
2021/07/04 01:25:31;;;;;;;17.80;9.60;;;15.80;99.90;;;;;;4993210;28;20426;-60
2021/07/04 01:27:59;;;;;;;12.13;8.77;;;15.80;99.90;;;;;;5003699;28;20505;-60
2021/07/04 01:30:26;;;;;;;12.90;8.60;;;15.70;99.90;;;;;;5006173;28;20957;-59
2021/07/04 01:32:52;;;;;;;12.10;9.37;;;15.80;99.90;;;;;;5007740;28;20462;-59
2021/07/04 01:35:18;;;;;;;17.00;9.57;;;15.70;99.90;;;;;;5005950;28;20950;-59
2021/07/04 01:37:44;;;;;;;14.03;9.83;;;15.70;99.90;;;;;;5009539;28;20184;-60
2021/07/04 01:40:11;;;;;;;13.20;9.30;;;15.70;99.90;;;;;;5013789;28;20184;-59
2021/07/04 01:42:39;;;;;;;14.30;9.20;;;15.70;99.90;;;;;;5013285;28;20605;-60
2021/07/04 01:45:06;;;;;;;13.63;8.73;;;15.70;99.90;;;;;;5008704;28;20586;-59
2021/07/04 01:47:37;;;;;;;12.67;9.87;;;15.70;99.90;;;;;;5006710;28;20431;-59
2021/07/04 01:50:05;;;;;;;16.83;9.63;;;15.70;99.90;;;;;;4999628;28;20458;-60
2021/07/04 01:52:30;;;;;;;17.13;9.57;;;15.80;99.90;;;;;;5006830;28;20473;-60
2021/07/04 01:54:56;;;;;;;15.27;9.70;;;15.70;99.90;;;;;;5007076;28;20477;-59
2021/07/04 01:57:24;;;;;;;13.60;9.17;;;15.80;99.90;;;;;;5007140;28;20673;-60
2021/07/04 01:59:53;;;;;;;18.83;10.47;;;15.70;99.90;;;;;;5008390;28;20180;-60
2021/07/04 02:02:19;;;;;;;22.17;10.10;;;15.70;99.90;;;;;;5009424;28;20426;-60
2021/07/04 02:04:44;;;;;;;15.33;10.37;;;15.70;99.90;;;;;;5007366;28;20432;-59
2021/07/04 02:07:15;;;;;;;13.00;9.63;;;15.70;99.90;;;;;;5007945;28;20180;-59
2021/07/04 02:09:45;;;;;;;13.00;9.00;;;15.70;99.90;;;;;;5002870;28;20173;-60
2021/07/04 02:12:14;;;;;;;16.37;10.07;;;15.70;99.90;;;;;;5008814;28;20546;-61
2021/07/04 02:14:40;;;;;;;14.77;9.07;;;15.70;99.90;;;;;;5004787;28;20471;-60
2021/07/04 02:17:06;;;;;;;15.37;9.63;;;15.70;99.90;;;;;;5013485;28;20486;-59
2021/07/04 02:19:35;;;;;;;16.70;10.33;;;15.70;99.90;;;;;;5011270;28;20200;-60
2021/07/04 02:22:02;;;;;;;14.43;10.00;;;15.80;99.90;;;;;;5012374;28;20195;-61
2021/07/04 02:24:28;;;;;;;16.07;9.70;;;15.80;99.90;;;;;;5002109;28;20435;-60
2021/07/04 02:26:54;;;;;;;13.90;9.53;;;15.80;99.90;;;;;;5012826;28;20423;-60
2021/07/04 02:29:20;;;;;;;14.37;9.03;;;15.80;99.90;;;;;;5011310;28;20420;-60
2021/07/04 02:31:46;;;;;;;15.47;10.03;;;15.80;99.90;;;;;;5011117;28;20299;-60
2021/07/04 02:34:12;;;;;;;13.80;10.03;;;15.80;99.90;;;;;;5011224;28;20172;-60
2021/07/04 02:36:38;;;;;;;14.60;9.70;;;15.80;99.90;;;;;;5011962;28;20179;-61
2021/07/04 02:39:04;;;;;;;15.37;9.90;;;15.80;99.90;;;;;;5011806;28;20431;-60
2021/07/04 02:41:31;;;;;;;12.30;8.93;;;15.80;99.90;;;;;;5007629;28;20200;-61
2021/07/04 02:43:57;;;;;;;14.20;10.33;;;15.70;99.90;;;;;;5011809;28;20442;-60
2021/07/04 02:46:22;;;;;;;15.40;9.23;;;15.70;99.90;;;;;;5011876;28;20940;-61
2021/07/04 02:48:48;;;;;;;12.00;8.97;;;15.80;99.90;;;;;;5011353;28;20208;-61
2021/07/04 02:51:14;;;;;;;16.33;8.97;;;15.80;99.90;;;;;;5010113;28;20200;-60
2021/07/04 02:53:39;;;;;;;12.83;9.47;;;15.70;99.90;;;;;;5010660;28;20172;-60
2021/07/04 02:56:05;;;;;;;12.70;9.43;;;15.80;99.90;;;;;;5010834;28;20184;-60
2021/07/04 02:58:30;;;;;;;11.33;8.90;;;15.80;99.90;;;;;;5010666;28;20196;-60
2021/07/04 03:00:56;;;;;;;13.73;9.47;;;15.80;99.90;;;;;;5010739;28;20242;-61
2021/07/04 03:03:22;;;;;;;17.17;9.50;;;15.80;99.90;;;;;;5011805;28;20177;-59
2021/07/04 03:05:47;;;;;;;11.57;9.07;;;15.80;99.90;;;;;;4993845;28;20548;-60
2021/07/04 03:08:13;;;;;;;13.10;9.70;;;15.80;99.90;;;;;;5008013;28;20190;-60
2021/07/04 03:10:40;;;;;;;15.50;8.50;;;15.80;99.90;;;;;;5011706;28;20267;-60
2021/07/04 03:13:06;;;;;;;16.87;10.03;;;15.70;99.90;;;;;;5007934;28;20200;-62
2021/07/04 03:15:31;;;;;;;14.73;9.80;;;15.70;99.90;;;;;;5006793;28;20905;-60
2021/07/04 03:17:57;;;;;;;13.50;8.97;;;15.70;99.90;;;;;;5010040;28;20200;-60
2021/07/04 03:20:23;;;;;;;13.47;9.20;;;15.70;99.90;;;;;;5009257;28;20661;-60
2021/07/04 03:22:49;;;;;;;12.90;9.53;;;15.70;99.90;;;;;;5010698;28;20271;-60
2021/07/04 03:25:15;;;;;;;14.50;9.73;;;15.70;99.90;;;;;;4993483;28;20228;-60
2021/07/04 03:27:42;;;;;;;11.90;8.93;;;15.70;99.90;;;;;;4991895;28;20171;-60
2021/07/04 03:30:11;;;;;;;14.00;9.43;;;15.70;99.90;;;;;;5009920;28;20506;-60
2021/07/04 03:32:37;;;;;;;15.43;10.40;;;15.70;99.90;;;;;;5009336;28;20467;-60
2021/07/04 03:35:05;;;;;;;14.37;9.37;;;15.80;99.90;;;;;;5009742;28;20423;-60
2021/07/04 03:37:30;;;;;;;14.63;9.17;;;15.80;99.90;;;;;;5010077;28;21069;-61
2021/07/04 03:39:56;;;;;;;13.93;9.50;;;15.80;99.90;;;;;;5010798;28;20428;-61
2021/07/04 03:42:21;;;;;;;12.30;9.40;;;15.80;99.90;;;;;;4992148;28;20197;-60
2021/07/04 03:44:47;;;;;;;10.80;8.40;;;15.80;99.90;;;;;;5008045;28;20172;-60
2021/07/04 03:47:13;;;;;;;17.13;10.53;;;15.80;99.90;;;;;;5011403;28;20184;-61
2021/07/04 03:49:38;;;;;;;16.50;10.00;;;15.80;99.90;;;;;;5009779;28;20238;-60
2021/07/04 03:52:04;;;;;;;16.90;9.77;;;15.80;99.90;;;;;;5009191;28;20208;-60
2021/07/04 03:54:30;;;;;;;13.80;9.93;;;15.80;99.90;;;;;;5009944;28;20211;-60
2021/07/04 03:56:55;;;;;;;12.50;9.20;;;15.80;99.90;;;;;;5010764;28;20602;-60
2021/07/04 03:59:21;;;;;;;13.30;8.83;;;15.80;99.90;;;;;;4999709;28;20666;-61
2021/07/04 04:01:47;;;;;;;14.50;9.40;;;15.80;99.90;;;;;;5000424;28;20196;-59
2021/07/04 04:04:12;;;;;;;15.23;9.90;;;15.90;99.90;;;;;;5008874;28;20263;-60
2021/07/04 04:06:38;;;;;;;13.80;8.63;;;15.90;99.90;;;;;;5010665;28;20188;-61
2021/07/04 04:09:04;;;;;;;12.83;9.40;;;15.90;99.90;;;;;;5002973;28;20176;-61
2021/07/04 04:11:29;;;;;;;12.53;8.80;;;15.90;99.90;;;;;;5004207;28;20188;-60
2021/07/04 04:13:55;;;;;;;12.80;9.13;;;15.90;99.90;;;;;;5010746;28;20199;-60
2021/07/04 04:16:20;;;;;;;13.23;9.93;;;15.90;99.90;;;;;;5010874;28;20271;-60
2021/07/04 04:18:46;;;;;;;15.50;9.73;;;15.90;99.90;;;;;;5009567;28;20204;-60
2021/07/04 04:21:12;;;;;;;15.33;9.40;;;15.90;99.90;;;;;;5003840;28;20208;-62
2021/07/04 04:23:38;;;;;;;11.90;9.30;;;15.90;99.90;;;;;;5010697;28;20169;-60
2021/07/04 04:26:04;;;;;;;13.53;8.70;;;15.90;99.90;;;;;;5011122;28;20406;-59
2021/07/04 04:28:31;;;;;;;14.47;9.50;;;15.90;99.90;;;;;;5006412;28;20172;-60
2021/07/04 04:30:56;;;;;;;13.40;9.20;;;15.90;99.90;;;;;;5010637;28;20230;-60
2021/07/04 04:33:22;;;;;;;13.10;9.37;;;16.00;99.90;;;;;;5008817;28;20974;-60
2021/07/04 04:35:48;;;;;;;13.30;9.30;;;16.00;99.90;;;;;;5010341;28;20176;-60
2021/07/04 04:38:14;;;;;;;15.63;10.07;;;16.00;99.90;;;;;;5001963;28;20704;-60
2021/07/04 04:40:40;;;;;;;12.60;9.90;;;16.00;99.90;;;;;;5009148;28;20451;-60
2021/07/04 04:43:05;;;;;;;13.10;9.97;;;15.90;99.90;;;;;;5010631;28;20196;-60
2021/07/04 04:45:31;;;;;;;14.67;9.73;;;15.90;99.90;;;;;;5003890;28;20173;-60
2021/07/04 04:47:57;;;;;;;13.93;9.23;;;15.90;99.90;;;;;;4991864;28;20684;-61
2021/07/04 04:50:22;;;;;;;14.83;9.63;;;15.90;99.90;;;;;;5008503;28;20172;-60
2021/07/04 04:52:48;;;;;;;14.60;9.23;;;15.90;99.90;;;;;;5009389;28;20192;-60
2021/07/04 04:55:14;;;;;;;12.30;9.30;;;16.00;99.90;;;;;;5003575;28;20185;-60
2021/07/04 04:57:40;;;;;;;12.60;9.73;;;16.00;99.90;;;;;;4990829;28;20197;-61
2021/07/04 05:00:12;;;;;;;13.13;9.27;;;16.00;99.90;;;;;;5000528;28;20591;-61
2021/07/04 05:02:38;;;;;;;13.10;9.90;;;16.10;99.90;;;;;;5006833;28;20451;-61
2021/07/04 05:05:05;;;;;;;14.70;10.20;;;16.10;99.90;;;;;;5007244;28;20523;-61
2021/07/04 05:07:30;;;;;;;15.53;9.63;;;16.10;99.90;;;;;;5008105;28;20584;-60
2021/07/04 05:09:56;;;;;;;12.90;9.37;;;16.10;99.90;;;;;;5009056;28;20458;-60
2021/07/04 05:12:22;;;;;;;16.20;11.47;;;16.00;99.90;;;;;;5007705;28;20200;-59
2021/07/04 05:14:47;;;;;;;14.00;10.00;;;16.10;99.90;;;;;;5009156;28;20180;-60
2021/07/04 05:17:15;;;;;;;14.30;10.10;;;16.10;99.90;;;;;;5007429;28;20197;-59
2021/07/04 05:19:41;;;;;;;17.40;10.20;;;16.10;99.90;;;;;;5006558;28;20644;-60
2021/07/04 05:22:06;;;;;;;15.70;10.40;;;16.10;99.90;;;;;;5006236;28;20462;-60
2021/07/04 05:24:32;;;;;;;14.87;10.60;;;16.10;99.90;;;;;;5009130;28;20423;-60
2021/07/04 05:26:58;;;;;;;16.13;10.33;;;16.10;99.90;;;;;;5008563;28;20168;-60
2021/07/04 05:29:23;;;;;;;15.23;10.73;;;16.10;99.90;;;;;;5006324;28;20177;-60
2021/07/04 05:31:49;;;;;;;14.37;9.73;;;16.10;99.90;;;;;;5009059;28;20208;-60
2021/07/04 05:34:14;;;;;;;17.30;10.80;;;16.00;99.90;;;;;;5009158;28;20176;-60
2021/07/04 05:36:44;;;;;;;13.90;10.10;;;16.00;99.90;;;;;;4999099;28;20181;-60
2021/07/04 05:39:10;;;;;;;14.80;9.20;;;16.00;99.90;;;;;;5004319;28;20224;-60
2021/07/04 05:41:35;;;;;;;15.17;10.70;;;16.00;99.90;;;;;;5002176;28;20427;-60
2021/07/04 05:44:01;;;;;;;12.60;10.10;;;16.10;99.90;;;;;;4991126;28;20173;-60
2021/07/04 05:46:27;;;;;;;17.13;9.57;;;16.10;99.90;;;;;;5007984;28;20263;-60
2021/07/04 05:48:52;;;;;;;16.77;10.20;;;16.20;99.90;;;;;;5009370;28;20661;-60
2021/07/04 05:51:18;;;;;;;13.13;9.50;;;16.30;99.90;;;;;;5011072;28;20467;-60
2021/07/04 05:53:44;;;;;;;15.30;10.43;;;16.40;99.90;;;;;;5007433;28;20638;-60
2021/07/04 05:56:09;;;;;;;15.00;10.07;;;16.50;99.90;;;;;;4995046;28;20635;-60
2021/07/04 05:58:35;;;;;;;12.10;9.77;;;16.60;99.90;;;;;;5012587;28;20193;-60
2021/07/04 06:01:01;;;;;;;19.03;8.60;;;16.60;99.90;;;;;;5010518;28;20176;-60
2021/07/04 06:03:26;;;;;;;13.40;10.30;;;16.70;99.90;;;;;;5009660;28;20184;-60
2021/07/04 06:05:52;;;;;;;12.27;9.20;;;16.80;99.90;;;;;;5013164;28;20177;-60
2021/07/04 06:08:18;;;;;;;12.30;8.03;;;16.80;99.90;;;;;;5012763;28;20719;-60
2021/07/04 06:10:45;;;;;;;14.10;8.63;;;16.80;99.90;;;;;;5010950;28;20195;-60
2021/07/04 06:13:11;;;;;;;13.27;8.93;;;16.90;99.90;;;;;;5001684;28;20292;-60
2021/07/04 06:15:37;;;;;;;13.40;8.83;;;16.90;99.90;;;;;;5012240;28;20424;-60
2021/07/04 06:18:03;;;;;;;17.30;9.20;;;17.00;99.90;;;;;;5013094;28;20462;-61
2021/07/04 06:20:28;;;;;;;13.17;8.80;;;17.00;99.90;;;;;;5009808;28;20184;-60
2021/07/04 06:22:54;;;;;;;13.83;8.80;;;17.00;99.90;;;;;;5006859;28;20271;-60
2021/07/04 06:25:21;;;;;;;18.30;8.53;;;17.10;99.90;;;;;;5011781;28;20262;-60
2021/07/04 06:27:46;;;;;;;11.47;8.20;;;17.10;99.90;;;;;;5011783;28;20461;-60
2021/07/04 06:30:12;;;;;;;15.60;8.60;;;17.10;99.90;;;;;;5006037;28;20432;-60
2021/07/04 06:32:39;;;;;;;13.70;8.70;;;17.10;99.90;;;;;;5012394;28;20208;-60
2021/07/04 06:35:07;;;;;;;12.27;8.67;;;17.10;99.90;;;;;;5012114;28;20518;-60
2021/07/04 06:37:33;;;;;;;10.93;8.50;;;17.10;99.90;;;;;;5020173;28;20447;-59
2021/07/04 06:39:59;;;;;;;11.30;8.40;;;17.10;99.90;;;;;;5016000;28;20960;-61
2021/07/04 06:42:24;;;;;;;10.90;9.37;;;17.00;99.90;;;;;;5021376;28;20470;-61
2021/07/04 06:44:50;;;;;;;10.60;8.37;;;17.10;99.90;;;;;;5034899;28;20200;-61
2021/07/04 06:47:16;;;;;;;14.30;9.07;;;17.20;99.90;;;;;;5008487;28;20188;-60
2021/07/04 06:49:41;;;;;;;11.70;8.33;;;17.20;99.90;;;;;;5011635;28;20346;-60
2021/07/04 06:52:07;;;;;;;14.33;8.43;;;17.40;99.90;;;;;;5008222;28;20216;-60
2021/07/04 06:54:33;;;;;;;9.13;7.60;;;17.50;99.90;;;;;;5010165;28;20205;-60
2021/07/04 06:59:43;;;;;;;11.17;7.00;;;17.70;99.90;;;;;;5011029;28;20176;-60
2021/07/04 07:02:09;;;;;;;12.30;6.70;;;17.90;99.90;;;;;;5008266;28;20451;-62
2021/07/04 07:04:35;;;;;;;9.70;7.37;;;18.00;99.90;;;;;;5006215;28;20696;-60
2021/07/04 07:07:01;;;;;;;8.57;6.67;;;18.10;99.90;;;;;;5011308;28;20207;-61
2021/07/04 07:09:26;;;;;;;8.93;7.07;;;18.30;99.90;;;;;;5011351;28;21058;-61
2021/07/04 07:11:52;;;;;;;10.70;7.27;;;18.40;99.90;;;;;;5010022;28;20330;-60
2021/07/04 07:14:18;;;;;;;8.13;6.97;;;18.50;99.90;;;;;;5011381;28;20657;-60
2021/07/04 07:16:43;;;;;;;14.03;7.43;;;18.60;99.90;;;;;;5010521;28;20169;-60
2021/07/04 07:19:09;;;;;;;7.43;6.10;;;18.70;99.90;;;;;;5008845;28;20177;-59
2021/07/04 07:21:34;;;;;;;11.40;7.03;;;18.80;99.90;;;;;;5007891;28;20189;-59
2021/07/04 07:24:00;;;;;;;8.17;6.50;;;18.90;99.90;;;;;;5009512;28;20183;-60
2021/07/04 07:26:26;;;;;;;9.23;6.07;;;18.90;99.90;;;;;;5006511;28;20168;-59
2021/07/04 07:28:51;;;;;;;9.70;6.40;;;18.90;99.90;;;;;;5000233;28;20172;-61
2021/07/04 07:31:20;;;;;;;7.83;6.20;;;19.00;99.90;;;;;;5010187;28;20220;-62
2021/07/04 07:33:46;;;;;;;7.00;5.83;;;19.10;99.90;;;;;;4999998;28;20235;-59
2021/07/04 07:36:12;;;;;;;9.90;6.10;;;19.20;99.90;;;;;;5002492;28;20890;-59
2021/07/04 07:38:37;;;;;;;7.73;6.33;;;19.10;99.90;;;;;;5003114;28;20211;-58
2021/07/04 07:41:03;;;;;;;9.60;6.03;;;19.10;99.90;;;;;;5001083;28;20192;-60
2021/07/04 07:43:29;;;;;;;9.10;6.47;;;19.00;99.90;;;;;;5005112;28;20549;-59
2021/07/04 07:45:54;;;;;;;7.70;5.87;;;19.00;99.90;;;;;;5004938;28;20173;-59
2021/07/04 07:48:20;;;;;;;9.63;6.50;;;19.10;99.90;;;;;;5005840;28;20189;-60
2021/07/04 07:50:46;;;;;;;7.67;6.23;;;19.10;99.90;;;;;;5003798;28;20819;-59
2021/07/04 07:53:12;;;;;;;8.23;5.67;;;19.20;99.90;;;;;;5003027;28;20560;-59
2021/07/04 07:55:38;;;;;;;10.17;6.50;;;19.30;99.90;;;;;;5005997;28;20637;-59
2021/07/04 07:58:04;;;;;;;7.57;6.43;;;19.30;99.90;;;;;;5002203;28;20470;-58
2021/07/04 08:00:30;;;;;;;8.43;6.07;;;19.40;99.90;;;;;;4999816;28;20181;-58
2021/07/04 08:02:56;;;;;;;11.20;5.53;;;19.60;99.90;;;;;;4999284;28;20236;-59
2021/07/04 08:05:22;;;;;;;6.47;5.50;;;19.70;99.90;;;;;;5004804;28;20459;-60
2021/07/04 08:07:48;;;;;;;7.30;5.30;;;19.70;99.40;;;;;;5004941;28;20563;-60
2021/07/04 08:10:14;;;;;;;6.33;5.47;;;19.60;99.30;;;;;;5001425;28;20184;-59
2021/07/04 08:12:41;;;;;;;6.53;5.57;;;19.50;99.10;;;;;;5005790;28;20996;-60
2021/07/04 08:15:07;;;;;;;6.73;5.27;;;19.50;99.00;;;;;;5002691;28;20642;-59
2021/07/04 08:17:33;;;;;;;14.80;5.50;;;19.40;98.60;;;;;;5003842;28;20482;-59
2021/07/04 08:19:58;;;;;;;6.67;4.60;;;19.30;98.90;;;;;;5006587;28;20481;-60
2021/07/04 08:22:24;;;;;;;6.17;5.03;;;19.30;99.20;;;;;;4998610;28;20847;-56
2021/07/04 08:24:50;;;;;;;7.90;5.60;;;19.20;99.50;;;;;;5000837;28;20838;-61
2021/07/04 08:27:15;;;;;;;9.87;5.17;;;19.20;99.80;;;;;;5003290;28;20711;-60
2021/07/04 08:29:41;;;;;;;6.67;5.70;;;19.20;99.90;;;;;;5008310;28;20184;-60
2021/07/04 08:32:07;;;;;;;6.43;5.43;;;19.20;99.90;;;;;;5004485;28;20220;-60
2021/07/04 08:34:33;;;;;;;6.97;5.13;;;19.20;99.90;;;;;;5005017;28;20180;-59
2021/07/04 08:36:59;;;;;;;8.90;5.47;;;19.30;99.90;;;;;;5002573;28;21129;-59
2021/07/04 08:39:24;;;;;;;6.00;5.40;;;19.40;99.90;;;;;;5003671;28;20179;-60
2021/07/04 08:41:50;;;;;;;8.47;5.27;;;19.50;99.70;;;;;;5005678;28;20309;-60
2021/07/04 08:44:16;;;;;;;6.23;5.10;;;19.50;99.70;;;;;;5003808;28;20560;-60
2021/07/04 08:46:43;;;;;;;6.93;5.63;;;19.50;99.90;;;;;;5002518;28;20256;-61
2021/07/04 08:49:10;;;;;;;6.80;4.90;;;19.50;99.90;;;;;;5006399;28;20606;-61
2021/07/04 08:51:36;;;;;;;6.80;5.60;;;19.50;99.90;;;;;;5001619;28;20456;-60
2021/07/04 08:54:02;;;;;;;6.40;5.10;;;19.50;99.90;;;;;;5002441;28;20449;-59
2021/07/04 08:56:30;;;;;;;7.50;4.90;;;19.50;99.90;;;;;;5004049;28;20189;-61
2021/07/04 08:58:58;;;;;;;6.77;5.00;;;19.40;99.90;;;;;;5017102;28;20534;-61
2021/07/04 09:01:25;;;;;;;5.10;4.43;;;19.40;99.90;;;;;;5006861;28;20979;-62
2021/07/04 09:04:12;;;;;;;5.17;4.10;;;19.40;99.90;;;;;;5005162;28;20463;-60
2021/07/04 09:06:43;;;;;;;5.67;4.53;;;19.30;99.90;;;;;;5002200;28;20438;-60
2021/07/04 09:09:24;;;;;;;5.00;4.50;;;19.40;99.90;;;;;;5004219;28;20435;-62
2021/07/04 09:12:11;;;;;;;6.20;4.60;;;19.50;99.90;;;;;;5001456;28;20534;-60
2021/07/04 09:14:45;;;;;;;6.77;4.33;;;19.60;99.90;;;;;;5001527;28;20442;-60
2021/07/04 09:17:18;;;;;;;5.30;4.17;;;19.70;99.90;;;;;;5000502;28;20462;-60
2021/07/04 09:20:00;;;;;;;4.07;3.67;;;19.90;99.90;;;;;;5000463;28;20461;-61
2021/07/04 09:22:40;;;;;;;4.70;4.00;;;20.10;99.90;;;;;;5005904;28;20982;-60
2021/07/04 09:25:15;;;;;;;4.10;2.97;;;20.20;99.90;;;;;;5002212;28;20533;-60
2021/07/04 09:28:02;;;;;;;4.90;3.30;;;20.40;98.80;;;;;;5003234;28;20443;-61
2021/07/04 09:30:39;;;;;;;3.73;3.43;;;20.40;98.50;;;;;;5006194;28;20886;-61
2021/07/04 09:33:18;;;;;;;2.93;2.63;;;20.40;97.80;;;;;;4999933;28;20466;-62
2021/07/04 09:36:04;;;;;;;3.30;3.00;;;20.30;97.50;;;;;;4996601;28;20439;-62
2021/07/04 09:38:48;;;;;;;4.07;3.37;;;20.20;97.70;;;;;;5003018;28;20987;-60
2021/07/04 09:41:15;;;;;;;4.33;3.93;;;20.10;98.80;;;;;;5000243;28;20459;-60
2021/07/04 09:43:41;;;;;;;5.00;3.70;;;20.10;99.80;;;;;;4991945;28;20498;-61
2021/07/04 09:46:11;;;;;;;4.20;3.80;;;20.20;99.90;;;;;;5001412;28;20816;-61
2021/07/04 09:48:49;;;;;;;4.10;3.70;;;20.20;99.90;;;;;;4996513;28;20546;-60
2021/07/04 09:51:23;;;;;;;5.03;4.53;;;20.10;99.80;;;;;;4994865;28;21070;-59
2021/07/04 09:53:50;;;;;;;4.93;3.83;;;20.10;99.80;;;;;;4999266;28;20498;-59
2021/07/04 09:56:30;;;;;;;4.40;3.70;;;20.10;99.60;;;;;;5001285;28;20493;-59
2021/07/04 09:58:59;;;;;;;4.10;3.70;;;20.10;99.30;;;;;;5007080;28;20462;-56
2021/07/04 10:01:32;;;;;;;4.33;3.93;;;20.00;98.90;;;;;;5008487;28;20493;-59
2021/07/04 10:03:58;;;;;;;5.00;4.50;;;20.00;99.70;;;;;;5007979;28;20458;-56
2021/07/04 10:06:24;;;;;;;4.73;4.20;;;20.00;99.90;;;;;;5007880;28;20438;-58
2021/07/04 10:08:50;;;;;;;5.00;4.07;;;20.00;99.90;;;;;;5007122;28;20423;-57
2021/07/04 10:11:16;;;;;;;4.50;4.10;;;20.10;99.80;;;;;;5007585;28;20597;-60
2021/07/04 10:13:44;;;;;;;4.53;4.07;;;20.10;99.60;;;;;;5007235;28;20219;-57
2021/07/04 10:16:15;;;;;;;4.53;3.70;;;20.30;99.90;;;;;;5008981;28;20899;-58
2021/07/04 10:18:46;;;;;;;4.00;3.70;;;20.30;99.60;;;;;;5008432;28;20991;-56
2021/07/04 10:21:13;;;;;;;4.27;3.87;;;20.40;99.20;;;;;;5008766;28;20431;-58
2021/07/04 10:23:45;;;;;;;8.63;3.90;;;20.30;98.40;;;;;;5005587;28;20431;-56
2021/07/04 10:26:11;;;;;;;5.13;4.53;;;20.20;98.30;;;;;;5008786;28;20469;-59
2021/07/04 10:28:39;;;;;;;4.40;3.93;;;20.20;99.00;;;;;;5023832;28;20414;-56
2021/07/04 10:31:13;;;;;;;4.50;4.10;;;20.20;98.90;;;;;;5007269;28;20443;-58
2021/07/04 10:33:39;;;;;;;4.70;4.30;;;20.10;98.50;;;;;;5007390;28;20453;-56
2021/07/04 10:36:18;;;;;;;4.40;3.93;;;20.00;98.20;;;;;;5010245;28;20411;-58
2021/07/04 10:38:45;;;;;;;3.83;3.53;;;20.10;98.80;;;;;;5011515;28;20199;-55
2021/07/04 10:41:19;;;;;;;5.30;3.77;;;20.10;97.60;;;;;;5011677;28;20538;-58
2021/07/04 10:44:06;;;;;;;5.20;3.40;;;20.10;97.60;;;;;;5010047;28;20427;-58
2021/07/04 10:46:44;;;;;;;3.70;3.40;;;20.20;97.30;;;;;;5009165;28;20518;-59
2021/07/04 10:49:14;;;;;;;3.97;3.57;;;20.30;98.00;;;;;;5011207;28;20931;-59
2021/07/04 10:52:00;;;;;;;4.73;3.50;;;20.30;98.20;;;;;;5011048;28;20447;-59
2021/07/04 10:54:53;;;;;;;5.00;3.50;;;20.50;97.70;;;;;;5005495;28;20514;-59
2021/07/04 10:57:34;;;;;;;4.40;4.00;;;20.60;97.20;;;;;;5011910;28;20451;-60
2021/07/04 11:00:00;;;;;;;5.23;3.77;;;20.60;97.10;;;;;;5011445;28;21006;-60
2021/07/04 11:02:46;;;;;;;4.10;3.67;;;20.70;97.20;;;;;;4994813;28;20484;-60
2021/07/04 11:05:38;;;;;;;4.60;3.90;;;20.70;96.70;;;;;;5011415;28;20172;-60
2021/07/04 11:08:18;;;;;;;3.50;3.20;;;20.80;96.30;;;;;;5009230;28;20450;-60
2021/07/04 11:10:50;;;;;;;3.97;3.57;;;21.00;96.40;;;;;;5008616;28;20441;-59
2021/07/04 11:13:15;;;;;;;3.50;3.20;;;21.20;95.30;;;;;;5010254;28;20431;-59
2021/07/04 11:15:42;;;;;;;4.73;3.27;;;21.40;96.00;;;;;;5011413;28;20939;-60
2021/07/04 11:18:13;;;;;;;3.47;3.17;;;21.80;96.40;;;;;;5024853;28;20295;-60
2021/07/04 11:20:38;;;;;;;4.70;3.73;;;22.20;95.00;;;;;;5010356;28;20634;-60
2021/07/04 11:25:58;;;;;;;5.03;3.63;;;22.50;92.10;;;;;;5008019;28;20566;-62
2021/07/04 11:28:39;;;;;;;3.63;3.33;;;22.50;91.20;;;;;;4999766;28;20454;-60
2021/07/04 11:31:16;;;;;;;4.53;3.43;;;22.50;91.60;;;;;;5010935;28;20454;-61
2021/07/04 11:33:55;;;;;;;4.53;3.70;;;22.60;91.90;;;;;;5009301;28;20415;-60
2021/07/04 11:36:28;;;;;;;3.33;3.07;;;22.90;90.10;;;;;;5003897;28;20522;-60
2021/07/04 11:38:58;;;;;;;4.27;3.20;;;23.20;82.40;;;;;;5010615;28;21149;-60
2021/07/04 11:41:31;;;;;;;3.50;3.20;;;23.50;83.70;;;;;;5007037;28;20509;-61
2021/07/04 11:44:04;;;;;;;4.30;3.47;;;23.70;79.30;;;;;;5008777;28;20978;-61
2021/07/04 11:46:31;;;;;;;3.87;2.93;;;23.80;77.80;;;;;;4994140;28;20423;-61
2021/07/04 11:49:09;;;;;;;2.93;2.73;;;23.70;69.50;;;;;;5016126;28;20458;-60
2021/07/04 11:51:53;;;;;;;3.13;2.87;;;23.60;73.40;;;;;;5008867;28;20481;-61
2021/07/04 11:54:23;;;;;;;3.73;3.30;;;23.50;71.70;;;;;;4988054;28;20443;-60
2021/07/04 11:56:51;;;;;;;8.73;3.43;;;23.50;73.10;;;;;;5003248;28;20458;-62
2021/07/04 11:59:24;;;;;;;3.73;2.73;;;23.40;77.90;;;;;;5002890;28;21203;-60
2021/07/04 12:01:53;;;;;;;5.07;3.00;;;23.30;77.00;;;;;;5002691;28;20440;-61
2021/07/04 12:04:29;;;;;;;2.90;2.70;;;23.20;74.60;;;;;;4998545;28;20431;-58
2021/07/04 12:06:58;;;;;;;6.20;3.07;;;23.00;68.30;;;;;;4996719;28;20932;-60
2021/07/04 12:09:56;;;;;;;3.10;2.90;;;22.80;72.00;;;;;;5004324;28;20469;-60
2021/07/04 12:12:33;;;;;;;4.83;3.30;;;22.70;73.30;;;;;;4995064;28;20458;-60
2021/07/04 12:15:02;;;;;;;4.87;3.13;;;22.60;72.60;;;;;;4992983;28;20997;-60
2021/07/04 12:17:45;;;;;;;3.43;3.10;;;22.50;73.00;;;;;;4998913;28;20582;-61
2021/07/04 12:20:26;;;;;;;3.93;3.53;;;22.50;74.00;;;;;;4994565;28;20483;-62
2021/07/04 12:22:54;;;;;;;3.93;3.63;;;22.60;75.90;;;;;;5001344;28;20477;-61
2021/07/04 12:25:28;;;;;;;4.47;3.30;;;22.60;76.00;;;;;;4996273;28;20442;-61
2021/07/04 12:28:00;;;;;;;5.33;3.20;;;22.50;73.00;;;;;;4994402;28;20436;-61
2021/07/04 12:30:32;;;;;;;4.80;3.33;;;22.50;75.80;;;;;;4998821;28;20439;-60
2021/07/04 12:33:05;;;;;;;4.40;3.00;;;22.50;73.40;;;;;;4994311;28;20491;-61
2021/07/04 12:35:41;;;;;;;4.40;3.23;;;22.40;74.50;;;;;;4999850;28;20434;-59
2021/07/04 12:38:17;;;;;;;3.47;3.17;;;22.40;72.50;;;;;;4995575;28;20456;-60
2021/07/04 12:41:10;;;;;;;6.10;3.60;;;22.40;76.30;;;;;;4998298;28;20579;-60
2021/07/04 12:43:43;;;;;;;5.57;3.23;;;22.30;75.70;;;;;;4993588;28;20427;-59
2021/07/04 12:46:30;;;;;;;3.40;3.10;;;22.20;75.40;;;;;;4995450;28;20432;-60
2021/07/04 12:48:58;;;;;;;3.00;2.80;;;22.10;76.70;;;;;;4993757;28;20874;-61
2021/07/04 12:51:35;;;;;;;3.67;2.93;;;22.10;78.60;;;;;;4998761;28;20461;-61
2021/07/04 12:54:13;;;;;;;3.63;3.20;;;22.00;78.50;;;;;;4999531;28;20470;-60